sensor_id;sensor_type;location;lat;lon;timestamp;P1;durP1;ratioP1;P2;durP2;ratioP2
58240;SDS011;45058;55.772;38.224;2022-10-16T00:00:41;75.00;;;27.43;;
58240;SDS011;45058;55.772;38.224;2022-10-16T00:03:07;74.30;;;26.97;;
58240;SDS011;45058;55.772;38.224;2022-10-16T00:05:42;76.33;;;26.57;;
58240;SDS011;45058;55.772;38.224;2022-10-16T00:08:10;72.23;;;24.90;;
58240;SDS011;45058;55.772;38.224;2022-10-16T00:10:37;93.30;;;28.70;;
58240;SDS011;45058;55.772;38.224;2022-10-16T00:13:03;75.03;;;25.13;;
58240;SDS011;45058;55.772;38.224;2022-10-16T00:15:32;100.67;;;31.53;;
58240;SDS011;45058;55.772;38.224;2022-10-16T00:18:02;97.53;;;32.23;;
58240;SDS011;45058;55.772;38.224;2022-10-16T00:20:29;95.03;;;39.43;;
58240;SDS011;45058;55.772;38.224;2022-10-16T00:23:15;97.40;;;41.38;;
58240;SDS011;45058;55.772;38.224;2022-10-16T00:25:42;57.63;;;30.83;;
58240;SDS011;45058;55.772;38.224;2022-10-16T00:28:08;48.93;;;22.80;;
58240;SDS011;45058;55.772;38.224;2022-10-16T00:30:36;40.10;;;21.20;;
58240;SDS011;45058;55.772;38.224;2022-10-16T00:33:03;38.47;;;18.73;;
58240;SDS011;45058;55.772;38.224;2022-10-16T00:35:30;39.60;;;19.70;;
58240;SDS011;45058;55.772;38.224;2022-10-16T00:37:56;37.90;;;19.30;;
58240;SDS011;45058;55.772;38.224;2022-10-16T00:40:22;40.27;;;18.63;;
58240;SDS011;45058;55.772;38.224;2022-10-16T00:42:48;43.50;;;19.07;;
58240;SDS011;45058;55.772;38.224;2022-10-16T00:45:14;33.37;;;15.90;;
58240;SDS011;45058;55.772;38.224;2022-10-16T00:47:43;29.73;;;14.80;;
58240;SDS011;45058;55.772;38.224;2022-10-16T00:50:27;36.47;;;15.07;;
58240;SDS011;45058;55.772;38.224;2022-10-16T00:52:55;26.60;;;14.00;;
58240;SDS011;45058;55.772;38.224;2022-10-16T00:55:21;25.87;;;12.77;;
58240;SDS011;45058;55.772;38.224;2022-10-16T00:57:48;26.27;;;13.17;;
58240;SDS011;45058;55.772;38.224;2022-10-16T01:00:16;37.17;;;16.60;;
58240;SDS011;45058;55.772;38.224;2022-10-16T01:02:44;29.33;;;15.67;;
58240;SDS011;45058;55.772;38.224;2022-10-16T01:05:17;43.30;;;16.43;;
58240;SDS011;45058;55.772;38.224;2022-10-16T01:08:00;36.70;;;16.30;;
58240;SDS011;45058;55.772;38.224;2022-10-16T01:10:52;43.47;;;17.33;;
58240;SDS011;45058;55.772;38.224;2022-10-16T01:16:44;44.33;;;17.50;;
58240;SDS011;45058;55.772;38.224;2022-10-16T01:19:07;48.27;;;19.83;;
58240;SDS011;45058;55.772;38.224;2022-10-16T01:21:44;37.87;;;17.30;;
58240;SDS011;45058;55.772;38.224;2022-10-16T01:24:24;44.15;;;15.30;;
58240;SDS011;45058;55.772;38.224;2022-10-16T01:32:31;48.87;;;16.87;;
58240;SDS011;45058;55.772;38.224;2022-10-16T01:35:35;30.53;;;13.17;;
58240;SDS011;45058;55.772;38.224;2022-10-16T01:40:34;46.43;;;15.43;;
58240;SDS011;45058;55.772;38.224;2022-10-16T01:43:03;34.30;;;15.07;;
58240;SDS011;45058;55.772;38.224;2022-10-16T01:45:30;35.43;;;15.83;;
58240;SDS011;45058;55.772;38.224;2022-10-16T01:47:57;49.80;;;17.80;;
58240;SDS011;45058;55.772;38.224;2022-10-16T01:50:24;52.57;;;19.93;;
58240;SDS011;45058;55.772;38.224;2022-10-16T01:52:52;46.03;;;19.27;;
58240;SDS011;45058;55.772;38.224;2022-10-16T01:55:24;43.30;;;18.40;;
58240;SDS011;45058;55.772;38.224;2022-10-16T01:57:54;53.07;;;19.67;;
58240;SDS011;45058;55.772;38.224;2022-10-16T02:00:20;49.50;;;19.10;;
58240;SDS011;45058;55.772;38.224;2022-10-16T02:02:47;31.97;;;15.57;;
58240;SDS011;45058;55.772;38.224;2022-10-16T02:05:18;33.80;;;15.47;;
58240;SDS011;45058;55.772;38.224;2022-10-16T02:07:48;34.80;;;15.17;;
58240;SDS011;45058;55.772;38.224;2022-10-16T02:10:14;37.63;;;16.10;;
58240;SDS011;45058;55.772;38.224;2022-10-16T02:12:42;27.27;;;13.67;;
58240;SDS011;45058;55.772;38.224;2022-10-16T02:15:49;49.80;;;18.37;;
58240;SDS011;45058;55.772;38.224;2022-10-16T02:18:20;40.87;;;15.33;;
58240;SDS011;45058;55.772;38.224;2022-10-16T02:20:59;32.97;;;14.20;;
58240;SDS011;45058;55.772;38.224;2022-10-16T02:26:17;30.80;;;13.13;;
58240;SDS011;45058;55.772;38.224;2022-10-16T02:28:53;26.93;;;13.07;;
58240;SDS011;45058;55.772;38.224;2022-10-16T02:31:23;21.27;;;11.27;;
58240;SDS011;45058;55.772;38.224;2022-10-16T02:33:54;23.60;;;10.07;;
58240;SDS011;45058;55.772;38.224;2022-10-16T02:36:21;24.97;;;12.00;;
58240;SDS011;45058;55.772;38.224;2022-10-16T02:38:47;26.50;;;11.67;;
58240;SDS011;45058;55.772;38.224;2022-10-16T02:41:14;20.77;;;10.47;;
58240;SDS011;45058;55.772;38.224;2022-10-16T02:43:40;34.50;;;12.80;;
58240;SDS011;45058;55.772;38.224;2022-10-16T02:46:06;25.10;;;11.70;;
58240;SDS011;45058;55.772;38.224;2022-10-16T02:48:32;25.50;;;11.20;;
58240;SDS011;45058;55.772;38.224;2022-10-16T02:50:58;22.60;;;12.03;;
58240;SDS011;45058;55.772;38.224;2022-10-16T02:53:24;22.57;;;10.77;;
58240;SDS011;45058;55.772;38.224;2022-10-16T02:55:50;22.17;;;11.33;;
58240;SDS011;45058;55.772;38.224;2022-10-16T02:58:16;26.47;;;10.67;;
58240;SDS011;45058;55.772;38.224;2022-10-16T03:00:42;21.57;;;11.53;;
58240;SDS011;45058;55.772;38.224;2022-10-16T03:03:07;18.00;;;10.03;;
58240;SDS011;45058;55.772;38.224;2022-10-16T03:05:33;18.93;;;10.30;;
58240;SDS011;45058;55.772;38.224;2022-10-16T03:07:59;16.67;;;9.87;;
58240;SDS011;45058;55.772;38.224;2022-10-16T03:10:26;20.83;;;10.27;;
58240;SDS011;45058;55.772;38.224;2022-10-16T03:12:52;20.50;;;10.00;;
58240;SDS011;45058;55.772;38.224;2022-10-16T03:15:18;17.63;;;9.47;;
58240;SDS011;45058;55.772;38.224;2022-10-16T03:17:44;21.00;;;10.17;;
58240;SDS011;45058;55.772;38.224;2022-10-16T03:20:10;22.93;;;11.20;;
58240;SDS011;45058;55.772;38.224;2022-10-16T03:22:36;25.00;;;10.53;;
58240;SDS011;45058;55.772;38.224;2022-10-16T03:25:02;18.60;;;9.77;;
58240;SDS011;45058;55.772;38.224;2022-10-16T03:27:29;18.77;;;10.07;;
58240;SDS011;45058;55.772;38.224;2022-10-16T03:29:55;19.30;;;10.13;;
58240;SDS011;45058;55.772;38.224;2022-10-16T03:32:21;20.27;;;9.80;;
58240;SDS011;45058;55.772;38.224;2022-10-16T03:34:47;15.77;;;8.93;;
58240;SDS011;45058;55.772;38.224;2022-10-16T03:37:12;21.20;;;9.63;;
58240;SDS011;45058;55.772;38.224;2022-10-16T03:39:38;20.40;;;8.80;;
58240;SDS011;45058;55.772;38.224;2022-10-16T03:42:04;19.00;;;9.30;;
58240;SDS011;45058;55.772;38.224;2022-10-16T03:44:30;16.37;;;8.53;;
58240;SDS011;45058;55.772;38.224;2022-10-16T03:46:56;18.60;;;9.43;;
58240;SDS011;45058;55.772;38.224;2022-10-16T03:49:22;15.23;;;9.13;;
58240;SDS011;45058;55.772;38.224;2022-10-16T03:51:48;23.77;;;9.33;;
58240;SDS011;45058;55.772;38.224;2022-10-16T03:54:14;18.70;;;9.73;;
58240;SDS011;45058;55.772;38.224;2022-10-16T03:56:40;16.57;;;8.93;;
58240;SDS011;45058;55.772;38.224;2022-10-16T03:59:06;23.50;;;9.37;;
58240;SDS011;45058;55.772;38.224;2022-10-16T04:01:32;21.30;;;9.47;;
58240;SDS011;45058;55.772;38.224;2022-10-16T04:03:58;18.00;;;10.13;;
58240;SDS011;45058;55.772;38.224;2022-10-16T04:06:24;19.63;;;10.80;;
58240;SDS011;45058;55.772;38.224;2022-10-16T04:08:50;23.60;;;9.27;;
58240;SDS011;45058;55.772;38.224;2022-10-16T04:11:15;21.67;;;9.13;;
58240;SDS011;45058;55.772;38.224;2022-10-16T04:13:41;21.37;;;8.83;;
58240;SDS011;45058;55.772;38.224;2022-10-16T04:16:07;14.60;;;8.87;;
58240;SDS011;45058;55.772;38.224;2022-10-16T04:18:33;15.10;;;9.10;;
58240;SDS011;45058;55.772;38.224;2022-10-16T04:21:04;16.13;;;8.87;;
58240;SDS011;45058;55.772;38.224;2022-10-16T04:23:31;18.63;;;9.13;;
58240;SDS011;45058;55.772;38.224;2022-10-16T04:25:57;15.50;;;8.40;;
58240;SDS011;45058;55.772;38.224;2022-10-16T04:28:23;17.43;;;9.27;;
58240;SDS011;45058;55.772;38.224;2022-10-16T04:30:49;17.53;;;9.47;;
58240;SDS011;45058;55.772;38.224;2022-10-16T04:33:15;26.37;;;8.77;;
58240;SDS011;45058;55.772;38.224;2022-10-16T04:35:41;15.90;;;8.97;;
58240;SDS011;45058;55.772;38.224;2022-10-16T04:38:07;17.50;;;8.50;;
58240;SDS011;45058;55.772;38.224;2022-10-16T04:40:33;17.07;;;8.07;;
58240;SDS011;45058;55.772;38.224;2022-10-16T04:43:04;19.10;;;8.07;;
58240;SDS011;45058;55.772;38.224;2022-10-16T04:45:31;22.83;;;8.23;;
58240;SDS011;45058;55.772;38.224;2022-10-16T04:47:57;14.80;;;8.20;;
58240;SDS011;45058;55.772;38.224;2022-10-16T04:50:24;16.33;;;7.13;;
58240;SDS011;45058;55.772;38.224;2022-10-16T04:53:04;15.97;;;8.97;;
58240;SDS011;45058;55.772;38.224;2022-10-16T04:55:31;19.50;;;8.50;;
58240;SDS011;45058;55.772;38.224;2022-10-16T04:57:57;15.07;;;8.23;;
58240;SDS011;45058;55.772;38.224;2022-10-16T05:00:23;14.57;;;8.57;;
58240;SDS011;45058;55.772;38.224;2022-10-16T05:02:49;18.27;;;9.80;;
58240;SDS011;45058;55.772;38.224;2022-10-16T05:05:16;16.57;;;8.43;;
58240;SDS011;45058;55.772;38.224;2022-10-16T05:07:45;16.97;;;9.00;;
58240;SDS011;45058;55.772;38.224;2022-10-16T05:10:11;15.07;;;9.27;;
58240;SDS011;45058;55.772;38.224;2022-10-16T05:12:37;20.23;;;9.33;;
58240;SDS011;45058;55.772;38.224;2022-10-16T05:15:03;20.10;;;9.40;;
58240;SDS011;45058;55.772;38.224;2022-10-16T05:17:30;15.13;;;9.47;;
58240;SDS011;45058;55.772;38.224;2022-10-16T05:19:56;20.33;;;10.50;;
58240;SDS011;45058;55.772;38.224;2022-10-16T05:22:22;14.53;;;9.97;;
58240;SDS011;45058;55.772;38.224;2022-10-16T05:24:48;22.47;;;12.20;;
58240;SDS011;45058;55.772;38.224;2022-10-16T05:27:14;17.83;;;9.73;;
58240;SDS011;45058;55.772;38.224;2022-10-16T05:29:47;19.07;;;10.90;;
58240;SDS011;45058;55.772;38.224;2022-10-16T05:32:14;22.50;;;10.27;;
58240;SDS011;45058;55.772;38.224;2022-10-16T05:34:42;18.77;;;10.37;;
58240;SDS011;45058;55.772;38.224;2022-10-16T05:37:08;17.10;;;10.60;;
58240;SDS011;45058;55.772;38.224;2022-10-16T05:39:34;23.17;;;10.00;;
58240;SDS011;45058;55.772;38.224;2022-10-16T05:42:02;22.50;;;10.40;;
58240;SDS011;45058;55.772;38.224;2022-10-16T05:44:28;21.07;;;10.70;;
58240;SDS011;45058;55.772;38.224;2022-10-16T05:46:54;16.03;;;9.57;;
58240;SDS011;45058;55.772;38.224;2022-10-16T05:49:20;15.10;;;9.90;;
58240;SDS011;45058;55.772;38.224;2022-10-16T05:51:46;19.20;;;9.77;;
58240;SDS011;45058;55.772;38.224;2022-10-16T05:54:12;14.53;;;9.63;;
58240;SDS011;45058;55.772;38.224;2022-10-16T05:56:38;15.03;;;9.77;;
58240;SDS011;45058;55.772;38.224;2022-10-16T05:59:04;16.80;;;10.03;;
58240;SDS011;45058;55.772;38.224;2022-10-16T06:01:31;24.67;;;9.80;;
58240;SDS011;45058;55.772;38.224;2022-10-16T06:03:58;18.00;;;8.97;;
58240;SDS011;45058;55.772;38.224;2022-10-16T06:06:25;13.83;;;8.93;;
58240;SDS011;45058;55.772;38.224;2022-10-16T06:08:52;14.43;;;8.87;;
58240;SDS011;45058;55.772;38.224;2022-10-16T06:11:20;17.73;;;9.13;;
58240;SDS011;45058;55.772;38.224;2022-10-16T06:13:57;25.47;;;10.27;;
58240;SDS011;45058;55.772;38.224;2022-10-16T06:16:25;18.77;;;9.93;;
58240;SDS011;45058;55.772;38.224;2022-10-16T06:18:52;20.70;;;9.73;;
58240;SDS011;45058;55.772;38.224;2022-10-16T06:21:20;24.90;;;9.50;;
58240;SDS011;45058;55.772;38.224;2022-10-16T06:23:47;16.60;;;8.93;;
58240;SDS011;45058;55.772;38.224;2022-10-16T06:26:15;20.57;;;9.07;;
58240;SDS011;45058;55.772;38.224;2022-10-16T06:28:43;19.37;;;9.33;;
58240;SDS011;45058;55.772;38.224;2022-10-16T06:31:10;21.53;;;9.63;;
58240;SDS011;45058;55.772;38.224;2022-10-16T06:33:37;22.00;;;9.50;;
58240;SDS011;45058;55.772;38.224;2022-10-16T06:36:05;20.23;;;10.13;;
58240;SDS011;45058;55.772;38.224;2022-10-16T06:38:33;14.97;;;9.07;;
58240;SDS011;45058;55.772;38.224;2022-10-16T06:41:00;16.93;;;8.63;;
58240;SDS011;45058;55.772;38.224;2022-10-16T06:43:27;16.50;;;8.23;;
58240;SDS011;45058;55.772;38.224;2022-10-16T06:45:57;14.43;;;8.43;;
58240;SDS011;45058;55.772;38.224;2022-10-16T06:48:25;19.63;;;9.02;;
58240;SDS011;45058;55.772;38.224;2022-10-16T06:53:40;15.45;;;9.25;;
58240;SDS011;45058;55.772;38.224;2022-10-16T06:56:12;14.23;;;8.60;;
58240;SDS011;45058;55.772;38.224;2022-10-16T06:58:41;19.13;;;8.77;;
58240;SDS011;45058;55.772;38.224;2022-10-16T07:01:08;20.20;;;8.32;;
58240;SDS011;45058;55.772;38.224;2022-10-16T07:03:38;15.35;;;9.38;;
58240;SDS011;45058;55.772;38.224;2022-10-16T07:06:06;15.98;;;8.48;;
58240;SDS011;45058;55.772;38.224;2022-10-16T07:08:35;17.13;;;7.68;;
58240;SDS011;45058;55.772;38.224;2022-10-16T07:11:03;18.50;;;8.52;;
58240;SDS011;45058;55.772;38.224;2022-10-16T07:13:35;17.30;;;8.48;;
58240;SDS011;45058;55.772;38.224;2022-10-16T07:16:05;14.35;;;8.63;;
58240;SDS011;45058;55.772;38.224;2022-10-16T07:18:32;14.73;;;8.35;;
58240;SDS011;45058;55.772;38.224;2022-10-16T07:23:57;16.25;;;7.97;;
58240;SDS011;45058;55.772;38.224;2022-10-16T07:26:25;22.77;;;9.10;;
58240;SDS011;45058;55.772;38.224;2022-10-16T07:28:53;14.93;;;8.25;;
58240;SDS011;45058;55.772;38.224;2022-10-16T07:31:20;15.32;;;8.23;;
58240;SDS011;45058;55.772;38.224;2022-10-16T07:33:48;16.75;;;8.48;;
58240;SDS011;45058;55.772;38.224;2022-10-16T07:36:15;15.50;;;8.10;;
58240;SDS011;45058;55.772;38.224;2022-10-16T07:38:43;17.75;;;8.43;;
58240;SDS011;45058;55.772;38.224;2022-10-16T07:41:13;16.55;;;8.55;;
58240;SDS011;45058;55.772;38.224;2022-10-16T07:43:45;23.23;;;10.07;;
58240;SDS011;45058;55.772;38.224;2022-10-16T07:46:15;20.58;;;9.02;;
58240;SDS011;45058;55.772;38.224;2022-10-16T07:48:43;18.98;;;9.18;;
58240;SDS011;45058;55.772;38.224;2022-10-16T07:51:13;22.52;;;10.75;;
58240;SDS011;45058;55.772;38.224;2022-10-16T07:53:41;15.60;;;8.70;;
58240;SDS011;45058;55.772;38.224;2022-10-16T07:56:07;26.25;;;9.45;;
58240;SDS011;45058;55.772;38.224;2022-10-16T07:58:33;13.98;;;7.80;;
58240;SDS011;45058;55.772;38.224;2022-10-16T08:01:06;15.90;;;9.07;;
58240;SDS011;45058;55.772;38.224;2022-10-16T08:03:36;16.23;;;8.70;;
58240;SDS011;45058;55.772;38.224;2022-10-16T08:06:02;16.30;;;7.97;;
58240;SDS011;45058;55.772;38.224;2022-10-16T08:08:29;20.60;;;7.82;;
58240;SDS011;45058;55.772;38.224;2022-10-16T08:10:55;17.40;;;7.97;;
58240;SDS011;45058;55.772;38.224;2022-10-16T08:13:21;16.13;;;8.05;;
58240;SDS011;45058;55.772;38.224;2022-10-16T08:15:49;19.10;;;7.47;;
58240;SDS011;45058;55.772;38.224;2022-10-16T08:18:15;16.70;;;7.35;;
58240;SDS011;45058;55.772;38.224;2022-10-16T08:20:42;14.25;;;6.95;;
58240;SDS011;45058;55.772;38.224;2022-10-16T08:23:09;11.45;;;6.72;;
58240;SDS011;45058;55.772;38.224;2022-10-16T08:25:38;20.00;;;8.07;;
58240;SDS011;45058;55.772;38.224;2022-10-16T08:28:04;19.38;;;8.00;;
58240;SDS011;45058;55.772;38.224;2022-10-16T08:30:31;16.75;;;8.02;;
58240;SDS011;45058;55.772;38.224;2022-10-16T08:32:57;18.70;;;6.93;;
58240;SDS011;45058;55.772;38.224;2022-10-16T08:35:26;14.07;;;7.35;;
58240;SDS011;45058;55.772;38.224;2022-10-16T08:38:05;17.15;;;7.65;;
58240;SDS011;45058;55.772;38.224;2022-10-16T08:40:43;11.77;;;7.15;;
58240;SDS011;45058;55.772;38.224;2022-10-16T08:49:05;16.92;;;6.60;;
58240;SDS011;45058;55.772;38.224;2022-10-16T08:51:54;16.83;;;6.85;;
58240;SDS011;45058;55.772;38.224;2022-10-16T08:54:53;20.60;;;7.53;;
58240;SDS011;45058;55.772;38.224;2022-10-16T08:57:45;18.38;;;6.82;;
58240;SDS011;45058;55.772;38.224;2022-10-16T09:06:37;12.80;;;6.55;;
58240;SDS011;45058;55.772;38.224;2022-10-16T09:11:53;22.98;;;10.20;;
58240;SDS011;45058;55.772;38.224;2022-10-16T09:20:20;20.40;;;7.53;;
58240;SDS011;45058;55.772;38.224;2022-10-16T09:23:17;15.82;;;7.25;;
58240;SDS011;45058;55.772;38.224;2022-10-16T09:25:45;27.58;;;11.52;;
58240;SDS011;45058;55.772;38.224;2022-10-16T09:28:15;21.83;;;9.82;;
58240;SDS011;45058;55.772;38.224;2022-10-16T09:30:42;21.20;;;10.50;;
58240;SDS011;45058;55.772;38.224;2022-10-16T09:33:09;29.05;;;10.95;;
58240;SDS011;45058;55.772;38.224;2022-10-16T09:38:06;20.73;;;6.65;;
58240;SDS011;45058;55.772;38.224;2022-10-16T09:40:35;20.20;;;8.15;;
58240;SDS011;45058;55.772;38.224;2022-10-16T09:43:14;21.17;;;7.50;;
58240;SDS011;45058;55.772;38.224;2022-10-16T09:46:08;17.35;;;6.78;;
58240;SDS011;45058;55.772;38.224;2022-10-16T09:48:47;17.30;;;6.80;;
58240;SDS011;45058;55.772;38.224;2022-10-16T09:51:18;16.15;;;7.30;;
58240;SDS011;45058;55.772;38.224;2022-10-16T09:53:48;14.32;;;6.50;;
58240;SDS011;45058;55.772;38.224;2022-10-16T09:59:17;19.05;;;5.72;;
58240;SDS011;45058;55.772;38.224;2022-10-16T10:01:45;11.57;;;5.07;;
58240;SDS011;45058;55.772;38.224;2022-10-16T10:04:13;27.70;;;12.32;;
58240;SDS011;45058;55.772;38.224;2022-10-16T10:06:46;34.33;;;11.20;;
58240;SDS011;45058;55.772;38.224;2022-10-16T10:12:22;11.77;;;5.47;;
58240;SDS011;45058;55.772;38.224;2022-10-16T10:14:53;17.70;;;5.57;;
58240;SDS011;45058;55.772;38.224;2022-10-16T10:17:22;25.13;;;7.35;;
58240;SDS011;45058;55.772;38.224;2022-10-16T10:19:56;18.55;;;8.00;;
58240;SDS011;45058;55.772;38.224;2022-10-16T10:30:24;16.52;;;5.80;;
58240;SDS011;45058;55.772;38.224;2022-10-16T10:35:41;13.07;;;4.47;;
58240;SDS011;45058;55.772;38.224;2022-10-16T10:38:26;10.60;;;4.90;;
58240;SDS011;45058;55.772;38.224;2022-10-16T10:46:36;21.25;;;7.25;;
58240;SDS011;45058;55.772;38.224;2022-10-16T10:59:38;16.67;;;5.78;;
58240;SDS011;45058;55.772;38.224;2022-10-16T11:05:12;115.45;;;41.58;;
58240;SDS011;45058;55.772;38.224;2022-10-16T11:10:25;29.85;;;15.65;;
58240;SDS011;45058;55.772;38.224;2022-10-16T11:13:05;25.13;;;9.88;;
58240;SDS011;45058;55.772;38.224;2022-10-16T11:15:41;21.52;;;9.32;;
58240;SDS011;45058;55.772;38.224;2022-10-16T11:18:13;26.65;;;12.68;;
58240;SDS011;45058;55.772;38.224;2022-10-16T11:20:45;27.15;;;15.80;;
58240;SDS011;45058;55.772;38.224;2022-10-16T11:23:20;28.65;;;15.65;;
58240;SDS011;45058;55.772;38.224;2022-10-16T11:25:56;14.70;;;5.65;;
58240;SDS011;45058;55.772;38.224;2022-10-16T11:28:32;17.38;;;7.22;;
58240;SDS011;45058;55.772;38.224;2022-10-16T11:31:07;22.27;;;8.25;;
58240;SDS011;45058;55.772;38.224;2022-10-16T11:33:37;17.45;;;7.30;;
58240;SDS011;45058;55.772;38.224;2022-10-16T11:38:53;26.15;;;11.20;;
58240;SDS011;45058;55.772;38.224;2022-10-16T11:49:40;18.67;;;7.18;;
58240;SDS011;45058;55.772;38.224;2022-10-16T11:52:19;11.80;;;5.05;;
58240;SDS011;45058;55.772;38.224;2022-10-16T11:54:51;12.52;;;4.78;;
58240;SDS011;45058;55.772;38.224;2022-10-16T11:57:29;16.45;;;7.18;;
58240;SDS011;45058;55.772;38.224;2022-10-16T12:00:00;17.00;;;6.45;;
58240;SDS011;45058;55.772;38.224;2022-10-16T12:05:31;20.92;;;8.15;;
58240;SDS011;45058;55.772;38.224;2022-10-16T12:08:14;13.25;;;6.50;;
58240;SDS011;45058;55.772;38.224;2022-10-16T12:10:42;15.65;;;6.35;;
58240;SDS011;45058;55.772;38.224;2022-10-16T12:16:06;14.73;;;7.78;;
58240;SDS011;45058;55.772;38.224;2022-10-16T12:19:14;40.53;;;18.05;;
58240;SDS011;45058;55.772;38.224;2022-10-16T12:21:42;57.33;;;29.17;;
58240;SDS011;45058;55.772;38.224;2022-10-16T12:24:30;29.02;;;14.52;;
58240;SDS011;45058;55.772;38.224;2022-10-16T12:26:59;13.13;;;7.90;;
58240;SDS011;45058;55.772;38.224;2022-10-16T12:32:27;15.68;;;6.78;;
58240;SDS011;45058;55.772;38.224;2022-10-16T12:34:57;9.55;;;4.03;;
58240;SDS011;45058;55.772;38.224;2022-10-16T12:37:26;22.33;;;5.68;;
58240;SDS011;45058;55.772;38.224;2022-10-16T12:39:54;20.25;;;7.93;;
58240;SDS011;45058;55.772;38.224;2022-10-16T12:44:54;18.35;;;7.35;;
58240;SDS011;45058;55.772;38.224;2022-10-16T12:49:54;27.40;;;17.20;;
58240;SDS011;45058;55.772;38.224;2022-10-16T12:52:26;35.42;;;21.48;;
58240;SDS011;45058;55.772;38.224;2022-10-16T12:55:05;40.08;;;22.80;;
58240;SDS011;45058;55.772;38.224;2022-10-16T13:06:16;41.00;;;22.48;;
58240;SDS011;45058;55.772;38.224;2022-10-16T13:09:02;20.05;;;10.85;;
58240;SDS011;45058;55.772;38.224;2022-10-16T13:14:39;12.57;;;5.78;;
58240;SDS011;45058;55.772;38.224;2022-10-16T13:17:42;12.38;;;6.97;;
58240;SDS011;45058;55.772;38.224;2022-10-16T13:20:35;19.27;;;9.25;;
58240;SDS011;45058;55.772;38.224;2022-10-16T13:23:34;16.98;;;7.00;;
58240;SDS011;45058;55.772;38.224;2022-10-16T13:28:38;25.48;;;13.82;;
58240;SDS011;45058;55.772;38.224;2022-10-16T13:31:05;19.45;;;9.07;;
58240;SDS011;45058;55.772;38.224;2022-10-16T13:33:50;31.42;;;19.25;;
58240;SDS011;45058;55.772;38.224;2022-10-16T13:36:21;28.15;;;17.17;;
58240;SDS011;45058;55.772;38.224;2022-10-16T13:38:57;21.00;;;10.43;;
58240;SDS011;45058;55.772;38.224;2022-10-16T13:41:26;22.30;;;10.13;;
58240;SDS011;45058;55.772;38.224;2022-10-16T13:43:52;14.32;;;8.30;;
58240;SDS011;45058;55.772;38.224;2022-10-16T13:46:22;31.45;;;17.35;;
58240;SDS011;45058;55.772;38.224;2022-10-16T13:48:56;26.02;;;13.40;;
58240;SDS011;45058;55.772;38.224;2022-10-16T13:51:24;19.85;;;10.50;;
58240;SDS011;45058;55.772;38.224;2022-10-16T13:53:50;111.40;;;68.43;;
58240;SDS011;45058;55.772;38.224;2022-10-16T13:56:18;49.20;;;26.80;;
58240;SDS011;45058;55.772;38.224;2022-10-16T13:58:46;33.10;;;18.33;;
58240;SDS011;45058;55.772;38.224;2022-10-16T14:03:52;22.63;;;12.38;;
58240;SDS011;45058;55.772;38.224;2022-10-16T14:06:19;26.83;;;14.93;;
58240;SDS011;45058;55.772;38.224;2022-10-16T14:08:50;21.50;;;12.23;;
58240;SDS011;45058;55.772;38.224;2022-10-16T14:11:23;30.48;;;14.70;;
58240;SDS011;45058;55.772;38.224;2022-10-16T14:13:50;29.63;;;17.83;;
58240;SDS011;45058;55.772;38.224;2022-10-16T14:16:20;30.52;;;18.23;;
58240;SDS011;45058;55.772;38.224;2022-10-16T14:18:58;64.25;;;28.02;;
58240;SDS011;45058;55.772;38.224;2022-10-16T14:21:26;40.97;;;19.58;;
58240;SDS011;45058;55.772;38.224;2022-10-16T14:23:52;41.22;;;18.92;;
58240;SDS011;45058;55.772;38.224;2022-10-16T14:26:20;35.65;;;18.35;;
58240;SDS011;45058;55.772;38.224;2022-10-16T14:28:49;39.70;;;14.85;;
58240;SDS011;45058;55.772;38.224;2022-10-16T14:31:30;38.53;;;16.50;;
58240;SDS011;45058;55.772;38.224;2022-10-16T14:33:58;30.75;;;13.30;;
58240;SDS011;45058;55.772;38.224;2022-10-16T14:36:25;30.98;;;13.25;;
58240;SDS011;45058;55.772;38.224;2022-10-16T14:41:20;38.08;;;14.80;;
58240;SDS011;45058;55.772;38.224;2022-10-16T14:43:50;41.63;;;14.35;;
58240;SDS011;45058;55.772;38.224;2022-10-16T14:46:19;34.72;;;15.30;;
58240;SDS011;45058;55.772;38.224;2022-10-16T14:48:52;38.83;;;14.90;;
58240;SDS011;45058;55.772;38.224;2022-10-16T14:51:28;82.45;;;34.95;;
58240;SDS011;45058;55.772;38.224;2022-10-16T14:53:54;70.57;;;30.35;;
58240;SDS011;45058;55.772;38.224;2022-10-16T14:56:24;64.53;;;26.25;;
58240;SDS011;45058;55.772;38.224;2022-10-16T14:58:52;99.90;;;43.85;;
58240;SDS011;45058;55.772;38.224;2022-10-16T15:01:19;143.57;;;70.80;;
58240;SDS011;45058;55.772;38.224;2022-10-16T15:03:46;96.75;;;48.65;;
58240;SDS011;45058;55.772;38.224;2022-10-16T15:06:15;79.38;;;35.72;;
58240;SDS011;45058;55.772;38.224;2022-10-16T15:08:42;55.05;;;22.80;;
58240;SDS011;45058;55.772;38.224;2022-10-16T15:11:10;43.70;;;20.95;;
58240;SDS011;45058;55.772;38.224;2022-10-16T15:13:39;67.15;;;28.52;;
58240;SDS011;45058;55.772;38.224;2022-10-16T15:16:07;106.00;;;41.63;;
58240;SDS011;45058;55.772;38.224;2022-10-16T15:18:37;97.97;;;46.72;;
58240;SDS011;45058;55.772;38.224;2022-10-16T15:21:03;129.02;;;61.05;;
58240;SDS011;45058;55.772;38.224;2022-10-16T15:23:29;62.85;;;32.97;;
58240;SDS011;45058;55.772;38.224;2022-10-16T15:25:55;49.53;;;23.63;;
58240;SDS011;45058;55.772;38.224;2022-10-16T15:28:22;37.38;;;18.98;;
58240;SDS011;45058;55.772;38.224;2022-10-16T15:30:50;48.83;;;21.15;;
58240;SDS011;45058;55.772;38.224;2022-10-16T15:33:21;47.65;;;18.02;;
58240;SDS011;45058;55.772;38.224;2022-10-16T15:35:49;47.60;;;21.13;;
58240;SDS011;45058;55.772;38.224;2022-10-16T15:38:17;50.20;;;23.67;;
58240;SDS011;45058;55.772;38.224;2022-10-16T15:40:45;54.47;;;22.75;;
58240;SDS011;45058;55.772;38.224;2022-10-16T15:43:12;57.50;;;20.60;;
58240;SDS011;45058;55.772;38.224;2022-10-16T15:45:38;54.67;;;23.90;;
58240;SDS011;45058;55.772;38.224;2022-10-16T15:48:04;64.22;;;26.70;;
58240;SDS011;45058;55.772;38.224;2022-10-16T15:50:30;58.35;;;27.80;;
58240;SDS011;45058;55.772;38.224;2022-10-16T15:52:57;75.07;;;32.88;;
58240;SDS011;45058;55.772;38.224;2022-10-16T15:55:23;80.30;;;33.67;;
58240;SDS011;45058;55.772;38.224;2022-10-16T15:57:49;79.57;;;34.45;;
58240;SDS011;45058;55.772;38.224;2022-10-16T16:00:17;84.13;;;31.67;;
58240;SDS011;45058;55.772;38.224;2022-10-16T16:02:49;81.97;;;31.30;;
58240;SDS011;45058;55.772;38.224;2022-10-16T16:05:19;98.57;;;48.42;;
58240;SDS011;45058;55.772;38.224;2022-10-16T16:07:46;64.25;;;34.50;;
58240;SDS011;45058;55.772;38.224;2022-10-16T16:10:12;51.72;;;25.63;;
58240;SDS011;45058;55.772;38.224;2022-10-16T16:12:38;36.72;;;18.13;;
58240;SDS011;45058;55.772;38.224;2022-10-16T16:15:05;42.53;;;19.60;;
58240;SDS011;45058;55.772;38.224;2022-10-16T16:17:33;38.63;;;17.05;;
58240;SDS011;45058;55.772;38.224;2022-10-16T16:19:59;36.33;;;17.05;;
58240;SDS011;45058;55.772;38.224;2022-10-16T16:22:26;40.22;;;18.23;;
58240;SDS011;45058;55.772;38.224;2022-10-16T16:24:52;36.10;;;17.17;;
58240;SDS011;45058;55.772;38.224;2022-10-16T16:27:19;32.20;;;15.52;;
58240;SDS011;45058;55.772;38.224;2022-10-16T16:29:45;34.90;;;15.57;;
58240;SDS011;45058;55.772;38.224;2022-10-16T16:32:12;32.47;;;14.65;;
58240;SDS011;45058;55.772;38.224;2022-10-16T16:34:38;35.15;;;15.35;;